sensor_id;sensor_type;location;lat;lon;timestamp;temperature;humidity
49765;DHT22;35657;51.204;-4.130;2023-07-13T00:01:50;18.10;99.90
49765;DHT22;35657;51.204;-4.130;2023-07-13T00:04:18;18.10;99.90
49765;DHT22;35657;51.204;-4.130;2023-07-13T00:06:45;18.10;99.90
49765;DHT22;35657;51.204;-4.130;2023-07-13T00:09:13;18.10;99.90
49765;DHT22;35657;51.204;-4.130;2023-07-13T00:11:39;18.00;99.90
49765;DHT22;35657;51.204;-4.130;2023-07-13T00:14:05;17.90;99.90
49765;DHT22;35657;51.204;-4.130;2023-07-13T00:16:38;17.90;99.90
49765;DHT22;35657;51.204;-4.130;2023-07-13T00:19:05;17.80;99.90
49765;DHT22;35657;51.204;-4.130;2023-07-13T00:21:31;17.80;99.90
49765;DHT22;35657;51.204;-4.130;2023-07-13T00:23:57;17.80;99.90
49765;DHT22;35657;51.204;-4.130;2023-07-13T00:26:23;17.70;99.90
49765;DHT22;35657;51.204;-4.130;2023-07-13T00:28:49;17.70;99.90
49765;DHT22;35657;51.204;-4.130;2023-07-13T00:31:15;17.70;99.90
49765;DHT22;35657;51.204;-4.130;2023-07-13T00:33:41;17.70;99.90
49765;DHT22;35657;51.204;-4.130;2023-07-13T00:36:08;17.70;99.90
49765;DHT22;35657;51.204;-4.130;2023-07-13T00:38:34;17.70;99.90
49765;DHT22;35657;51.204;-4.130;2023-07-13T00:41:00;17.70;99.90
49765;DHT22;35657;51.204;-4.130;2023-07-13T00:43:27;17.60;99.90
49765;DHT22;35657;51.204;-4.130;2023-07-13T00:48:21;17.60;99.90
49765;DHT22;35657;51.204;-4.130;2023-07-13T00:50:51;17.60;99.90
49765;DHT22;35657;51.204;-4.130;2023-07-13T00:53:19;17.70;99.90
49765;DHT22;35657;51.204;-4.130;2023-07-13T00:55:46;17.80;99.90
49765;DHT22;35657;51.204;-4.130;2023-07-13T00:58:13;17.80;99.90
49765;DHT22;35657;51.204;-4.130;2023-07-13T01:00:39;17.90;99.90
49765;DHT22;35657;51.204;-4.130;2023-07-13T01:03:05;17.90;99.90
49765;DHT22;35657;51.204;-4.130;2023-07-13T01:05:33;17.90;99.90
49765;DHT22;35657;51.204;-4.130;2023-07-13T01:08:00;17.90;99.90
49765;DHT22;35657;51.204;-4.130;2023-07-13T01:10:27;18.00;99.90
49765;DHT22;35657;51.204;-4.130;2023-07-13T01:12:54;17.90;99.90
49765;DHT22;35657;51.204;-4.130;2023-07-13T01:15:37;17.80;99.90
49765;DHT22;35657;51.204;-4.130;2023-07-13T01:18:09;17.70;99.90
49765;DHT22;35657;51.204;-4.130;2023-07-13T01:20:36;17.70;99.90
49765;DHT22;35657;51.204;-4.130;2023-07-13T01:23:07;17.70;99.90
49765;DHT22;35657;51.204;-4.130;2023-07-13T01:25:35;17.70;99.90
49765;DHT22;35657;51.204;-4.130;2023-07-13T01:28:02;17.60;99.90
49765;DHT22;35657;51.204;-4.130;2023-07-13T01:30:28;17.60;99.90
49765;DHT22;35657;51.204;-4.130;2023-07-13T01:32:54;17.60;99.90
49765;DHT22;35657;51.204;-4.130;2023-07-13T01:35:21;17.60;99.90
49765;DHT22;35657;51.204;-4.130;2023-07-13T01:37:46;17.60;99.90
49765;DHT22;35657;51.204;-4.130;2023-07-13T01:40:12;17.60;99.90
49765;DHT22;35657;51.204;-4.130;2023-07-13T01:42:38;17.60;99.90
49765;DHT22;35657;51.204;-4.130;2023-07-13T01:45:05;17.60;99.90
49765;DHT22;35657;51.204;-4.130;2023-07-13T01:47:31;17.50;99.90
49765;DHT22;35657;51.204;-4.130;2023-07-13T01:49:57;17.50;99.90
49765;DHT22;35657;51.204;-4.130;2023-07-13T01:52:23;17.50;99.90
49765;DHT22;35657;51.204;-4.130;2023-07-13T01:54:49;17.50;99.90
49765;DHT22;35657;51.204;-4.130;2023-07-13T01:57:14;17.60;99.90
49765;DHT22;35657;51.204;-4.130;2023-07-13T01:59:40;17.60;99.90
49765;DHT22;35657;51.204;-4.130;2023-07-13T02:02:06;17.70;99.90
49765;DHT22;35657;51.204;-4.130;2023-07-13T02:04:32;17.70;99.90
49765;DHT22;35657;51.204;-4.130;2023-07-13T02:06:58;17.80;99.90
49765;DHT22;35657;51.204;-4.130;2023-07-13T02:09:24;17.80;99.90
49765;DHT22;35657;51.204;-4.130;2023-07-13T02:11:49;17.80;99.90
49765;DHT22;35657;51.204;-4.130;2023-07-13T02:14:15;17.80;99.90
49765;DHT22;35657;51.204;-4.130;2023-07-13T02:16:41;17.80;99.90
49765;DHT22;35657;51.204;-4.130;2023-07-13T02:19:08;17.70;99.90
49765;DHT22;35657;51.204;-4.130;2023-07-13T02:21:33;17.70;99.90
49765;DHT22;35657;51.204;-4.130;2023-07-13T02:23:59;17.60;99.90
49765;DHT22;35657;51.204;-4.130;2023-07-13T02:26:25;17.60;99.90
49765;DHT22;35657;51.204;-4.130;2023-07-13T02:28:51;17.50;99.90
49765;DHT22;35657;51.204;-4.130;2023-07-13T02:31:17;17.50;99.90
49765;DHT22;35657;51.204;-4.130;2023-07-13T02:33:43;17.50;99.90
49765;DHT22;35657;51.204;-4.130;2023-07-13T02:36:10;17.50;99.90
49765;DHT22;35657;51.204;-4.130;2023-07-13T02:38:36;17.50;99.90
49765;DHT22;35657;51.204;-4.130;2023-07-13T02:41:04;17.50;99.90
49765;DHT22;35657;51.204;-4.130;2023-07-13T02:43:29;17.50;99.90
49765;DHT22;35657;51.204;-4.130;2023-07-13T02:45:55;17.50;99.90
49765;DHT22;35657;51.204;-4.130;2023-07-13T02:48:21;17.50;99.90
49765;DHT22;35657;51.204;-4.130;2023-07-13T02:50:47;17.50;99.90
49765;DHT22;35657;51.204;-4.130;2023-07-13T02:53:13;17.40;99.90
49765;DHT22;35657;51.204;-4.130;2023-07-13T02:55:39;17.50;99.90
49765;DHT22;35657;51.204;-4.130;2023-07-13T02:58:06;17.40;99.90
49765;DHT22;35657;51.204;-4.130;2023-07-13T03:00:32;17.50;99.90
49765;DHT22;35657;51.204;-4.130;2023-07-13T03:02:58;17.60;99.90
49765;DHT22;35657;51.204;-4.130;2023-07-13T03:05:24;17.60;99.90
49765;DHT22;35657;51.204;-4.130;2023-07-13T03:07:50;17.60;99.90
49765;DHT22;35657;51.204;-4.130;2023-07-13T03:10:15;17.60;99.90
49765;DHT22;35657;51.204;-4.130;2023-07-13T03:12:42;17.70;99.90
49765;DHT22;35657;51.204;-4.130;2023-07-13T03:15:08;17.60;99.90
49765;DHT22;35657;51.204;-4.130;2023-07-13T03:17:34;17.60;99.90
49765;DHT22;35657;51.204;-4.130;2023-07-13T03:20:00;17.60;99.90
49765;DHT22;35657;51.204;-4.130;2023-07-13T03:22:26;17.60;99.90
49765;DHT22;35657;51.204;-4.130;2023-07-13T03:24:51;17.50;99.90
49765;DHT22;35657;51.204;-4.130;2023-07-13T03:27:17;17.50;99.90
49765;DHT22;35657;51.204;-4.130;2023-07-13T03:29:44;17.40;99.90
49765;DHT22;35657;51.204;-4.130;2023-07-13T03:32:09;17.40;99.90
49765;DHT22;35657;51.204;-4.130;2023-07-13T03:34:35;17.40;99.90
49765;DHT22;35657;51.204;-4.130;2023-07-13T03:37:01;17.40;99.90
49765;DHT22;35657;51.204;-4.130;2023-07-13T03:39:27;17.40;99.90
49765;DHT22;35657;51.204;-4.130;2023-07-13T03:41:53;17.40;99.90
49765;DHT22;35657;51.204;-4.130;2023-07-13T03:44:19;17.40;99.90
49765;DHT22;35657;51.204;-4.130;2023-07-13T03:46:45;17.40;99.90
49765;DHT22;35657;51.204;-4.130;2023-07-13T03:49:11;17.40;99.90
49765;DHT22;35657;51.204;-4.130;2023-07-13T03:51:37;17.40;99.90
49765;DHT22;35657;51.204;-4.130;2023-07-13T03:54:03;17.30;99.90
49765;DHT22;35657;51.204;-4.130;2023-07-13T03:56:30;17.30;99.90
49765;DHT22;35657;51.204;-4.130;2023-07-13T03:58:56;17.30;99.90
49765;DHT22;35657;51.204;-4.130;2023-07-13T04:01:23;17.30;99.90
49765;DHT22;35657;51.204;-4.130;2023-07-13T04:03:50;17.30;99.90
49765;DHT22;35657;51.204;-4.130;2023-07-13T04:06:22;17.30;99.90
49765;DHT22;35657;51.204;-4.130;2023-07-13T04:08:54;17.40;99.90
49765;DHT22;35657;51.204;-4.130;2023-07-13T04:11:21;17.40;99.90
49765;DHT22;35657;51.204;-4.130;2023-07-13T04:13:47;17.40;99.90
49765;DHT22;35657;51.204;-4.130;2023-07-13T04:16:14;17.40;99.90
49765;DHT22;35657;51.204;-4.130;2023-07-13T04:18:40;17.50;99.90
49765;DHT22;35657;51.204;-4.130;2023-07-13T04:21:07;17.50;99.90
49765;DHT22;35657;51.204;-4.130;2023-07-13T04:23:33;17.60;99.90
49765;DHT22;35657;51.204;-4.130;2023-07-13T04:25:58;17.50;99.90
49765;DHT22;35657;51.204;-4.130;2023-07-13T04:28:25;17.40;99.90
49765;DHT22;35657;51.204;-4.130;2023-07-13T04:30:52;17.40;99.90
49765;DHT22;35657;51.204;-4.130;2023-07-13T04:33:18;17.30;99.90
49765;DHT22;35657;51.204;-4.130;2023-07-13T04:35:50;17.30;99.90
49765;DHT22;35657;51.204;-4.130;2023-07-13T04:38:20;17.30;99.90
49765;DHT22;35657;51.204;-4.130;2023-07-13T04:40:46;17.30;99.90
49765;DHT22;35657;51.204;-4.130;2023-07-13T04:43:12;17.20;99.90
49765;DHT22;35657;51.204;-4.130;2023-07-13T04:45:38;17.30;99.90
49765;DHT22;35657;51.204;-4.130;2023-07-13T04:48:04;17.30;99.90
49765;DHT22;35657;51.204;-4.130;2023-07-13T04:50:30;17.30;99.90
49765;DHT22;35657;51.204;-4.130;2023-07-13T04:52:56;17.20;99.90
49765;DHT22;35657;51.204;-4.130;2023-07-13T04:55:22;17.20;99.90
49765;DHT22;35657;51.204;-4.130;2023-07-13T04:57:47;17.20;99.90
49765;DHT22;35657;51.204;-4.130;2023-07-13T05:00:14;17.20;99.90
49765;DHT22;35657;51.204;-4.130;2023-07-13T05:02:44;17.20;99.90
49765;DHT22;35657;51.204;-4.130;2023-07-13T05:05:10;17.20;99.90
49765;DHT22;35657;51.204;-4.130;2023-07-13T05:07:35;17.20;99.90
49765;DHT22;35657;51.204;-4.130;2023-07-13T05:10:02;17.30;99.90
49765;DHT22;35657;51.204;-4.130;2023-07-13T05:12:29;17.30;99.90
49765;DHT22;35657;51.204;-4.130;2023-07-13T05:14:55;17.40;99.90
49765;DHT22;35657;51.204;-4.130;2023-07-13T05:17:21;17.50;99.90
49765;DHT22;35657;51.204;-4.130;2023-07-13T05:19:47;17.60;99.90
49765;DHT22;35657;51.204;-4.130;2023-07-13T05:22:13;17.50;99.90
49765;DHT22;35657;51.204;-4.130;2023-07-13T05:24:38;17.60;99.90
49765;DHT22;35657;51.204;-4.130;2023-07-13T05:27:05;17.60;99.90
49765;DHT22;35657;51.204;-4.130;2023-07-13T05:29:31;17.60;99.90
49765;DHT22;35657;51.204;-4.130;2023-07-13T05:31:56;17.60;99.90
49765;DHT22;35657;51.204;-4.130;2023-07-13T05:34:23;17.40;99.90
49765;DHT22;35657;51.204;-4.130;2023-07-13T05:36:49;17.40;99.90
49765;DHT22;35657;51.204;-4.130;2023-07-13T05:39:15;17.40;99.90
49765;DHT22;35657;51.204;-4.130;2023-07-13T05:41:41;17.30;99.90
49765;DHT22;35657;51.204;-4.130;2023-07-13T05:44:07;17.30;99.90
49765;DHT22;35657;51.204;-4.130;2023-07-13T05:46:32;17.30;99.90
49765;DHT22;35657;51.204;-4.130;2023-07-13T05:48:59;17.40;99.90
49765;DHT22;35657;51.204;-4.130;2023-07-13T05:51:25;17.30;99.90
49765;DHT22;35657;51.204;-4.130;2023-07-13T05:53:51;17.30;99.90
49765;DHT22;35657;51.204;-4.130;2023-07-13T05:56:16;17.40;99.90
49765;DHT22;35657;51.204;-4.130;2023-07-13T05:58:42;17.40;99.90
49765;DHT22;35657;51.204;-4.130;2023-07-13T06:01:12;17.40;99.90
49765;DHT22;35657;51.204;-4.130;2023-07-13T06:03:39;17.40;99.90
49765;DHT22;35657;51.204;-4.130;2023-07-13T06:06:06;17.40;99.90
49765;DHT22;35657;51.204;-4.130;2023-07-13T06:08:32;17.40;99.90
49765;DHT22;35657;51.204;-4.130;2023-07-13T06:11:07;17.50;99.90
49765;DHT22;35657;51.204;-4.130;2023-07-13T06:13:33;17.50;99.90
49765;DHT22;35657;51.204;-4.130;2023-07-13T06:15:59;17.60;99.90
49765;DHT22;35657;51.204;-4.130;2023-07-13T06:18:25;17.70;99.90
49765;DHT22;35657;51.204;-4.130;2023-07-13T06:20:51;17.70;99.90
49765;DHT22;35657;51.204;-4.130;2023-07-13T06:23:17;17.70;99.90
49765;DHT22;35657;51.204;-4.130;2023-07-13T06:25:43;17.80;99.90
49765;DHT22;35657;51.204;-4.130;2023-07-13T06:28:09;17.80;99.90
49765;DHT22;35657;51.204;-4.130;2023-07-13T06:30:35;17.90;99.90
49765;DHT22;35657;51.204;-4.130;2023-07-13T06:33:03;17.90;99.90
49765;DHT22;35657;51.204;-4.130;2023-07-13T06:35:29;17.90;99.90
49765;DHT22;35657;51.204;-4.130;2023-07-13T06:37:54;17.90;99.90
49765;DHT22;35657;51.204;-4.130;2023-07-13T06:40:20;17.90;99.90
49765;DHT22;35657;51.204;-4.130;2023-07-13T06:42:46;17.90;99.90
49765;DHT22;35657;51.204;-4.130;2023-07-13T06:45:11;17.90;99.90
49765;DHT22;35657;51.204;-4.130;2023-07-13T06:47:37;17.90;99.90
49765;DHT22;35657;51.204;-4.130;2023-07-13T06:50:03;17.80;99.90
49765;DHT22;35657;51.204;-4.130;2023-07-13T06:52:29;17.90;99.90
49765;DHT22;35657;51.204;-4.130;2023-07-13T06:54:55;17.90;99.90
49765;DHT22;35657;51.204;-4.130;2023-07-13T06:57:21;18.00;99.90
49765;DHT22;35657;51.204;-4.130;2023-07-13T06:59:46;18.00;99.90
49765;DHT22;35657;51.204;-4.130;2023-07-13T07:02:12;18.10;99.90
49765;DHT22;35657;51.204;-4.130;2023-07-13T07:04:38;18.10;99.90
49765;DHT22;35657;51.204;-4.130;2023-07-13T07:07:04;18.10;99.90
49765;DHT22;35657;51.204;-4.130;2023-07-13T07:09:30;18.20;99.90
49765;DHT22;35657;51.204;-4.130;2023-07-13T07:11:57;18.20;99.90
49765;DHT22;35657;51.204;-4.130;2023-07-13T07:14:22;18.20;99.90
49765;DHT22;35657;51.204;-4.130;2023-07-13T07:16:49;18.30;99.90
49765;DHT22;35657;51.204;-4.130;2023-07-13T07:19:15;18.50;99.90
49765;DHT22;35657;51.204;-4.130;2023-07-13T07:21:41;18.70;99.90
49765;DHT22;35657;51.204;-4.130;2023-07-13T07:24:07;18.80;99.90
49765;DHT22;35657;51.204;-4.130;2023-07-13T07:26:33;18.60;99.90
49765;DHT22;35657;51.204;-4.130;2023-07-13T07:28:59;18.60;99.90
49765;DHT22;35657;51.204;-4.130;2023-07-13T07:31:25;18.60;99.90
49765;DHT22;35657;51.204;-4.130;2023-07-13T07:33:50;18.60;99.90
49765;DHT22;35657;51.204;-4.130;2023-07-13T07:36:16;18.60;99.90
49765;DHT22;35657;51.204;-4.130;2023-07-13T07:38:43;18.60;99.90
49765;DHT22;35657;51.204;-4.130;2023-07-13T07:41:09;18.60;99.90
49765;DHT22;35657;51.204;-4.130;2023-07-13T07:43:35;18.50;99.90
49765;DHT22;35657;51.204;-4.130;2023-07-13T07:46:01;18.60;99.90
49765;DHT22;35657;51.204;-4.130;2023-07-13T07:48:26;18.70;99.90
49765;DHT22;35657;51.204;-4.130;2023-07-13T07:50:52;18.70;99.90
49765;DHT22;35657;51.204;-4.130;2023-07-13T07:53:18;18.60;99.90
49765;DHT22;35657;51.204;-4.130;2023-07-13T07:55:44;18.70;99.90
49765;DHT22;35657;51.204;-4.130;2023-07-13T07:58:10;18.70;99.90
49765;DHT22;35657;51.204;-4.130;2023-07-13T08:00:36;18.80;99.90
49765;DHT22;35657;51.204;-4.130;2023-07-13T08:03:02;18.80;99.90
49765;DHT22;35657;51.204;-4.130;2023-07-13T08:05:28;18.70;99.90
49765;DHT22;35657;51.204;-4.130;2023-07-13T08:07:54;18.70;99.90
49765;DHT22;35657;51.204;-4.130;2023-07-13T08:10:20;18.60;99.90
49765;DHT22;35657;51.204;-4.130;2023-07-13T08:12:46;18.70;99.90
49765;DHT22;35657;51.204;-4.130;2023-07-13T08:15:14;18.70;99.90
49765;DHT22;35657;51.204;-4.130;2023-07-13T08:17:40;18.70;99.90
49765;DHT22;35657;51.204;-4.130;2023-07-13T08:20:07;18.70;99.90
49765;DHT22;35657;51.204;-4.130;2023-07-13T08:22:34;18.60;99.90
49765;DHT22;35657;51.204;-4.130;2023-07-13T08:25:01;18.40;99.90
49765;DHT22;35657;51.204;-4.130;2023-07-13T08:27:28;18.30;99.90
49765;DHT22;35657;51.204;-4.130;2023-07-13T08:29:53;18.40;99.90
49765;DHT22;35657;51.204;-4.130;2023-07-13T08:32:21;18.40;99.90
49765;DHT22;35657;51.204;-4.130;2023-07-13T08:34:47;18.50;99.90
49765;DHT22;35657;51.204;-4.130;2023-07-13T08:37:13;18.60;99.90
49765;DHT22;35657;51.204;-4.130;2023-07-13T08:39:39;18.90;99.90
49765;DHT22;35657;51.204;-4.130;2023-07-13T08:42:11;18.90;99.90
49765;DHT22;35657;51.204;-4.130;2023-07-13T08:47:31;18.90;99.90
49765;DHT22;35657;51.204;-4.130;2023-07-13T08:49:59;18.70;99.90
49765;DHT22;35657;51.204;-4.130;2023-07-13T08:52:39;18.70;99.90
49765;DHT22;35657;51.204;-4.130;2023-07-13T08:55:13;18.60;99.90
49765;DHT22;35657;51.204;-4.130;2023-07-13T08:57:39;18.80;99.90
49765;DHT22;35657;51.204;-4.130;2023-07-13T09:00:10;19.00;99.90
49765;DHT22;35657;51.204;-4.130;2023-07-13T09:05:42;19.20;99.90
49765;DHT22;35657;51.204;-4.130;2023-07-13T09:08:35;19.10;99.90
49765;DHT22;35657;51.204;-4.130;2023-07-13T09:11:22;19.10;99.90
49765;DHT22;35657;51.204;-4.130;2023-07-13T09:16:24;19.40;99.90
49765;DHT22;35657;51.204;-4.130;2023-07-13T09:18:52;19.50;99.90
49765;DHT22;35657;51.204;-4.130;2023-07-13T09:21:30;19.30;99.90
49765;DHT22;35657;51.204;-4.130;2023-07-13T09:24:21;19.30;99.90
49765;DHT22;35657;51.204;-4.130;2023-07-13T09:26:45;19.50;99.90
49765;DHT22;35657;51.204;-4.130;2023-07-13T09:29:30;19.60;99.90
49765;DHT22;35657;51.204;-4.130;2023-07-13T09:32:02;19.70;99.90
49765;DHT22;35657;51.204;-4.130;2023-07-13T09:34:29;19.90;99.90
49765;DHT22;35657;51.204;-4.130;2023-07-13T09:36:56;19.90;99.90
49765;DHT22;35657;51.204;-4.130;2023-07-13T09:42:07;20.00;99.90
49765;DHT22;35657;51.204;-4.130;2023-07-13T09:47:21;19.80;99.90
49765;DHT22;35657;51.204;-4.130;2023-07-13T09:50:03;19.80;99.90
49765;DHT22;35657;51.204;-4.130;2023-07-13T09:52:41;19.70;99.90
49765;DHT22;35657;51.204;-4.130;2023-07-13T09:55:24;19.80;99.90
49765;DHT22;35657;51.204;-4.130;2023-07-13T09:57:51;19.80;99.90
49765;DHT22;35657;51.204;-4.130;2023-07-13T10:00:27;19.90;99.90
49765;DHT22;35657;51.204;-4.130;2023-07-13T10:03:19;20.00;99.90
49765;DHT22;35657;51.204;-4.130;2023-07-13T10:05:47;20.50;99.90
49765;DHT22;35657;51.204;-4.130;2023-07-13T10:08:27;20.60;99.90
49765;DHT22;35657;51.204;-4.130;2023-07-13T10:10:58;20.60;99.90
49765;DHT22;35657;51.204;-4.130;2023-07-13T10:13:36;20.70;99.90
49765;DHT22;35657;51.204;-4.130;2023-07-13T10:16:06;20.90;99.90
49765;DHT22;35657;51.204;-4.130;2023-07-13T10:18:49;21.00;99.90
49765;DHT22;35657;51.204;-4.130;2023-07-13T10:21:18;20.90;99.90
49765;DHT22;35657;51.204;-4.130;2023-07-13T10:23:49;21.00;99.90
49765;DHT22;35657;51.204;-4.130;2023-07-13T10:26:23;20.80;99.90
49765;DHT22;35657;51.204;-4.130;2023-07-13T10:28:54;20.90;99.90
49765;DHT22;35657;51.204;-4.130;2023-07-13T10:31:22;20.90;99.90
49765;DHT22;35657;51.204;-4.130;2023-07-13T10:33:49;20.90;99.90
49765;DHT22;35657;51.204;-4.130;2023-07-13T10:36:34;21.20;99.90
49765;DHT22;35657;51.204;-4.130;2023-07-13T10:39:04;21.10;99.90
49765;DHT22;35657;51.204;-4.130;2023-07-13T10:41:36;20.50;99.90
49765;DHT22;35657;51.204;-4.130;2023-07-13T10:44:05;20.50;99.90
49765;DHT22;35657;51.204;-4.130;2023-07-13T10:46:33;20.80;99.90
49765;DHT22;35657;51.204;-4.130;2023-07-13T10:49:04;20.50;99.90
49765;DHT22;35657;51.204;-4.130;2023-07-13T10:51:31;20.90;99.90
49765;DHT22;35657;51.204;-4.130;2023-07-13T10:54:11;20.90;99.90
49765;DHT22;35657;51.204;-4.130;2023-07-13T10:56:39;20.60;99.90
49765;DHT22;35657;51.204;-4.130;2023-07-13T10:59:10;20.80;99.90
49765;DHT22;35657;51.204;-4.130;2023-07-13T11:02:24;20.70;99.90
49765;DHT22;35657;51.204;-4.130;2023-07-13T11:04:47;20.50;99.90
49765;DHT22;35657;51.204;-4.130;2023-07-13T11:07:29;20.80;99.90
49765;DHT22;35657;51.204;-4.130;2023-07-13T11:09:57;21.30;99.90
49765;DHT22;35657;51.204;-4.130;2023-07-13T11:23:17;21.10;99.90
49765;DHT22;35657;51.204;-4.130;2023-07-13T11:25:44;20.90;99.90
49765;DHT22;35657;51.204;-4.130;2023-07-13T11:31:00;21.20;99.90
49765;DHT22;35657;51.204;-4.130;2023-07-13T11:36:07;22.40;99.90
49765;DHT22;35657;51.204;-4.130;2023-07-13T11:38:38;22.70;99.90
49765;DHT22;35657;51.204;-4.130;2023-07-13T11:43:33;23.10;99.90
49765;DHT22;35657;51.204;-4.130;2023-07-13T11:46:13;22.90;99.90
49765;DHT22;35657;51.204;-4.130;2023-07-13T11:48:39;22.40;99.90
49765;DHT22;35657;51.204;-4.130;2023-07-13T11:51:06;22.80;99.90
49765;DHT22;35657;51.204;-4.130;2023-07-13T11:53:39;23.20;99.90
49765;DHT22;35657;51.204;-4.130;2023-07-13T11:56:06;23.40;99.90
49765;DHT22;35657;51.204;-4.130;2023-07-13T11:58:32;23.40;99.90
49765;DHT22;35657;51.204;-4.130;2023-07-13T12:01:00;23.40;99.90
49765;DHT22;35657;51.204;-4.130;2023-07-13T12:03:30;23.30;99.90
49765;DHT22;35657;51.204;-4.130;2023-07-13T12:06:05;23.40;99.90
49765;DHT22;35657;51.204;-4.130;2023-07-13T12:08:37;23.20;99.90
49765;DHT22;35657;51.204;-4.130;2023-07-13T12:11:06;22.80;99.90
49765;DHT22;35657;51.204;-4.130;2023-07-13T12:13:37;22.70;99.90
49765;DHT22;35657;51.204;-4.130;2023-07-13T12:16:12;22.70;99.90
49765;DHT22;35657;51.204;-4.130;2023-07-13T12:18:43;22.90;99.90
49765;DHT22;35657;51.204;-4.130;2023-07-13T12:21:17;22.80;99.90
49765;DHT22;35657;51.204;-4.130;2023-07-13T12:23:44;22.70;99.90
49765;DHT22;35657;51.204;-4.130;2023-07-13T12:26:12;22.80;99.90
49765;DHT22;35657;51.204;-4.130;2023-07-13T12:31:35;22.20;99.90
49765;DHT22;35657;51.204;-4.130;2023-07-13T12:34:06;22.30;99.90
49765;DHT22;35657;51.204;-4.130;2023-07-13T12:36:41;22.50;99.90
49765;DHT22;35657;51.204;-4.130;2023-07-13T12:39:39;22.70;99.90
49765;DHT22;35657;51.204;-4.130;2023-07-13T12:42:26;22.50;99.90
49765;DHT22;35657;51.204;-4.130;2023-07-13T12:45:02;22.70;99.90
49765;DHT22;35657;51.204;-4.130;2023-07-13T12:47:30;22.70;99.90
49765;DHT22;35657;51.204;-4.130;2023-07-13T12:50:04;22.40;99.90
49765;DHT22;35657;51.204;-4.130;2023-07-13T12:52:35;22.60;99.90
49765;DHT22;35657;51.204;-4.130;2023-07-13T12:55:06;22.70;99.90
49765;DHT22;35657;51.204;-4.130;2023-07-13T12:57:53;22.40;99.90
49765;DHT22;35657;51.204;-4.130;2023-07-13T13:00:36;22.20;99.90
49765;DHT22;35657;51.204;-4.130;2023-07-13T13:05:44;22.30;99.90
49765;DHT22;35657;51.204;-4.130;2023-07-13T13:08:11;22.00;99.90
49765;DHT22;35657;51.204;-4.130;2023-07-13T13:10:38;22.10;99.90
49765;DHT22;35657;51.204;-4.130;2023-07-13T13:13:04;22.10;99.90
49765;DHT22;35657;51.204;-4.130;2023-07-13T13:15:30;22.00;99.90
49765;DHT22;35657;51.204;-4.130;2023-07-13T13:17:56;22.00;99.90
49765;DHT22;35657;51.204;-4.130;2023-07-13T13:20:24;21.90;99.90
49765;DHT22;35657;51.204;-4.130;2023-07-13T13:22:51;22.00;99.90
49765;DHT22;35657;51.204;-4.130;2023-07-13T13:25:18;22.00;99.90
49765;DHT22;35657;51.204;-4.130;2023-07-13T13:27:45;21.90;99.90
49765;DHT22;35657;51.204;-4.130;2023-07-13T13:30:13;21.90;99.90
49765;DHT22;35657;51.204;-4.130;2023-07-13T13:32:46;21.80;99.90
49765;DHT22;35657;51.204;-4.130;2023-07-13T13:35:17;22.10;99.90
49765;DHT22;35657;51.204;-4.130;2023-07-13T13:37:43;22.10;99.90
49765;DHT22;35657;51.204;-4.130;2023-07-13T13:40:20;22.00;99.90
49765;DHT22;35657;51.204;-4.130;2023-07-13T13:42:48;22.10;99.90
49765;DHT22;35657;51.204;-4.130;2023-07-13T13:45:14;22.50;99.90
49765;DHT22;35657;51.204;-4.130;2023-07-13T13:47:41;22.30;99.90
49765;DHT22;35657;51.204;-4.130;2023-07-13T13:50:20;22.50;99.90
49765;DHT22;35657;51.204;-4.130;2023-07-13T13:52:46;22.40;99.90
49765;DHT22;35657;51.204;-4.130;2023-07-13T13:55:16;22.20;99.90
49765;DHT22;35657;51.204;-4.130;2023-07-13T13:57:47;22.20;99.90
49765;DHT22;35657;51.204;-4.130;2023-07-13T14:00:14;22.00;99.90
49765;DHT22;35657;51.204;-4.130;2023-07-13T14:02:45;22.20;99.90
49765;DHT22;35657;51.204;-4.130;2023-07-13T14:05:15;22.10;99.90
49765;DHT22;35657;51.204;-4.130;2023-07-13T14:07:43;22.30;99.90
49765;DHT22;35657;51.204;-4.130;2023-07-13T14:10:15;22.40;99.90
49765;DHT22;35657;51.204;-4.130;2023-07-13T14:12:47;22.50;99.90
49765;DHT22;35657;51.204;-4.130;2023-07-13T14:15:21;22.40;99.90
49765;DHT22;35657;51.204;-4.130;2023-07-13T14:17:48;22.10;99.90
49765;DHT22;35657;51.204;-4.130;2023-07-13T14:20:21;22.10;99.90
49765;DHT22;35657;51.204;-4.130;2023-07-13T14:22:49;22.00;99.90
49765;DHT22;35657;51.204;-4.130;2023-07-13T14:25:17;22.00;99.90
49765;DHT22;35657;51.204;-4.130;2023-07-13T14:27:44;22.10;99.90
49765;DHT22;35657;51.204;-4.130;2023-07-13T14:30:14;22.40;99.90
49765;DHT22;35657;51.204;-4.130;2023-07-13T14:32:41;22.60;99.90
49765;DHT22;35657;51.204;-4.130;2023-07-13T14:35:13;22.70;99.90
49765;DHT22;35657;51.204;-4.130;2023-07-13T14:37:40;22.70;99.90
49765;DHT22;35657;51.204;-4.130;2023-07-13T14:42:39;23.20;99.90
49765;DHT22;35657;51.204;-4.130;2023-07-13T14:45:05;23.20;99.90
49765;DHT22;35657;51.204;-4.130;2023-07-13T14:47:31;23.20;99.90
49765;DHT22;35657;51.204;-4.130;2023-07-13T14:49:57;23.20;99.90
49765;DHT22;35657;51.204;-4.130;2023-07-13T14:52:23;23.20;99.90
49765;DHT22;35657;51.204;-4.130;2023-07-13T14:54:51;23.20;99.90
49765;DHT22;35657;51.204;-4.130;2023-07-13T14:57:18;23.40;99.90
49765;DHT22;35657;51.204;-4.130;2023-07-13T14:59:44;23.20;99.90
49765;DHT22;35657;51.204;-4.130;2023-07-13T15:02:32;23.20;99.90
49765;DHT22;35657;51.204;-4.130;2023-07-13T15:04:59;23.10;99.90
49765;DHT22;35657;51.204;-4.130;2023-07-13T15:07:25;23.10;99.90
49765;DHT22;35657;51.204;-4.130;2023-07-13T15:09:51;23.10;99.90
49765;DHT22;35657;51.204;-4.130;2023-07-13T15:12:18;23.10;99.90
49765;DHT22;35657;51.204;-4.130;2023-07-13T15:14:44;22.90;99.90
49765;DHT22;35657;51.204;-4.130;2023-07-13T15:17:33;22.80;99.90
49765;DHT22;35657;51.204;-4.130;2023-07-13T15:20:05;22.90;99.90
49765;DHT22;35657;51.204;-4.130;2023-07-13T15:22:32;22.90;99.90
49765;DHT22;35657;51.204;-4.130;2023-07-13T15:24:57;22.80;99.90
49765;DHT22;35657;51.204;-4.130;2023-07-13T15:27:23;22.50;99.90
49765;DHT22;35657;51.204;-4.130;2023-07-13T15:29:49;22.40;99.90
49765;DHT22;35657;51.204;-4.130;2023-07-13T15:32:15;22.30;99.90
49765;DHT22;35657;51.204;-4.130;2023-07-13T15:34:41;22.20;99.90
49765;DHT22;35657;51.204;-4.130;2023-07-13T15:37:16;22.40;99.90
49765;DHT22;35657;51.204;-4.130;2023-07-13T15:39:43;22.30;99.90
49765;DHT22;35657;51.204;-4.130;2023-07-13T15:42:19;22.20;99.90
49765;DHT22;35657;51.204;-4.130;2023-07-13T15:44:46;22.20;99.90
49765;DHT22;35657;51.204;-4.130;2023-07-13T15:47:14;22.20;99.90
49765;DHT22;35657;51.204;-4.130;2023-07-13T15:49:41;22.20;99.90
49765;DHT22;35657;51.204;-4.130;2023-07-13T15:52:22;22.10;99.90
49765;DHT22;35657;51.204;-4.130;2023-07-13T15:54:49;22.10;99.90
49765;DHT22;35657;51.204;-4.130;2023-07-13T15:57:16;22.00;99.90
49765;DHT22;35657;51.204;-4.130;2023-07-13T15:59:42;21.90;99.90
49765;DHT22;35657;51.204;-4.130;2023-07-13T16:02:19;21.70;99.90
49765;DHT22;35657;51.204;-4.130;2023-07-13T16:04:46;21.70;99.90
49765;DHT22;35657;51.204;-4.130;2023-07-13T16:07:15;21.70;99.90